sensor_id;sensor_type;location;lat;lon;timestamp;temperature;humidity
11922;DHT22;6021;51.182;3.160;2023-02-28T00:01:29;0.40;99.90
11922;DHT22;6021;51.182;3.160;2023-02-28T00:03:58;0.60;99.90
11922;DHT22;6021;51.182;3.160;2023-02-28T00:06:26;0.60;99.90
11922;DHT22;6021;51.182;3.160;2023-02-28T00:08:55;0.50;99.90
11922;DHT22;6021;51.182;3.160;2023-02-28T00:11:23;0.50;99.90
11922;DHT22;6021;51.182;3.160;2023-02-28T00:13:52;0.40;99.90
11922;DHT22;6021;51.182;3.160;2023-02-28T00:16:21;0.40;99.90
11922;DHT22;6021;51.182;3.160;2023-02-28T00:18:50;0.40;99.90
11922;DHT22;6021;51.182;3.160;2023-02-28T00:21:19;0.30;99.90
11922;DHT22;6021;51.182;3.160;2023-02-28T00:23:48;0.40;99.90
11922;DHT22;6021;51.182;3.160;2023-02-28T00:26:16;0.40;99.90
11922;DHT22;6021;51.182;3.160;2023-02-28T00:28:45;0.30;99.90
11922;DHT22;6021;51.182;3.160;2023-02-28T00:31:13;0.30;99.90
11922;DHT22;6021;51.182;3.160;2023-02-28T00:33:42;0.40;99.90
11922;DHT22;6021;51.182;3.160;2023-02-28T00:36:11;0.20;99.90
11922;DHT22;6021;51.182;3.160;2023-02-28T00:38:40;0.50;99.90
11922;DHT22;6021;51.182;3.160;2023-02-28T00:41:09;0.30;99.90
11922;DHT22;6021;51.182;3.160;2023-02-28T00:43:38;0.50;99.90
11922;DHT22;6021;51.182;3.160;2023-02-28T00:46:07;0.40;99.90
11922;DHT22;6021;51.182;3.160;2023-02-28T00:48:36;0.60;99.90
11922;DHT22;6021;51.182;3.160;2023-02-28T00:51:05;0.30;99.90
11922;DHT22;6021;51.182;3.160;2023-02-28T00:53:33;0.30;99.90
11922;DHT22;6021;51.182;3.160;2023-02-28T00:56:02;0.40;99.90
11922;DHT22;6021;51.182;3.160;2023-02-28T00:58:31;0.30;99.90
11922;DHT22;6021;51.182;3.160;2023-02-28T01:00:59;0.30;99.90
11922;DHT22;6021;51.182;3.160;2023-02-28T01:03:28;0.30;99.90
11922;DHT22;6021;51.182;3.160;2023-02-28T01:05:56;0.50;99.90
11922;DHT22;6021;51.182;3.160;2023-02-28T01:08:24;0.50;99.90
11922;DHT22;6021;51.182;3.160;2023-02-28T01:10:54;0.40;99.90
11922;DHT22;6021;51.182;3.160;2023-02-28T01:13:23;0.40;99.90
11922;DHT22;6021;51.182;3.160;2023-02-28T01:15:54;0.50;99.90
11922;DHT22;6021;51.182;3.160;2023-02-28T01:18:23;0.40;99.90
11922;DHT22;6021;51.182;3.160;2023-02-28T01:20:52;0.30;99.90
11922;DHT22;6021;51.182;3.160;2023-02-28T01:23:21;0.20;99.90
11922;DHT22;6021;51.182;3.160;2023-02-28T01:25:51;0.40;99.90
11922;DHT22;6021;51.182;3.160;2023-02-28T01:28:20;0.30;99.90
11922;DHT22;6021;51.182;3.160;2023-02-28T01:30:50;0.20;99.90
11922;DHT22;6021;51.182;3.160;2023-02-28T01:33:18;0.50;99.90
11922;DHT22;6021;51.182;3.160;2023-02-28T01:35:47;0.30;99.90
11922;DHT22;6021;51.182;3.160;2023-02-28T01:38:15;0.40;99.90
11922;DHT22;6021;51.182;3.160;2023-02-28T01:40:44;0.60;99.90
11922;DHT22;6021;51.182;3.160;2023-02-28T01:43:30;0.80;99.90
11922;DHT22;6021;51.182;3.160;2023-02-28T01:45:54;0.80;99.90
11922;DHT22;6021;51.182;3.160;2023-02-28T01:48:25;0.70;99.90
11922;DHT22;6021;51.182;3.160;2023-02-28T01:50:56;0.50;99.90
11922;DHT22;6021;51.182;3.160;2023-02-28T01:53:33;0.40;99.90
11922;DHT22;6021;51.182;3.160;2023-02-28T01:55:58;0.40;99.90
11922;DHT22;6021;51.182;3.160;2023-02-28T01:58:27;0.40;99.90
11922;DHT22;6021;51.182;3.160;2023-02-28T02:00:55;0.40;99.90
11922;DHT22;6021;51.182;3.160;2023-02-28T02:03:24;0.40;99.90
11922;DHT22;6021;51.182;3.160;2023-02-28T02:05:54;0.50;99.90
11922;DHT22;6021;51.182;3.160;2023-02-28T02:08:26;0.40;99.90
11922;DHT22;6021;51.182;3.160;2023-02-28T02:11:02;0.60;99.90
11922;DHT22;6021;51.182;3.160;2023-02-28T02:19:02;0.30;99.90
11922;DHT22;6021;51.182;3.160;2023-02-28T02:21:47;0.30;99.90
11922;DHT22;6021;51.182;3.160;2023-02-28T02:24:35;0.30;99.90
11922;DHT22;6021;51.182;3.160;2023-02-28T02:32:42;0.20;99.90
11922;DHT22;6021;51.182;3.160;2023-02-28T02:35:12;0.20;99.90
11922;DHT22;6021;51.182;3.160;2023-02-28T02:41:01;0.20;99.90
11922;DHT22;6021;51.182;3.160;2023-02-28T02:43:28;0.30;99.90
11922;DHT22;6021;51.182;3.160;2023-02-28T02:45:59;0.40;99.90
11922;DHT22;6021;51.182;3.160;2023-02-28T02:48:29;0.40;99.90
11922;DHT22;6021;51.182;3.160;2023-02-28T02:51:00;0.50;99.90
11922;DHT22;6021;51.182;3.160;2023-02-28T02:53:34;0.50;99.90
11922;DHT22;6021;51.182;3.160;2023-02-28T02:56:04;0.60;99.90
11922;DHT22;6021;51.182;3.160;2023-02-28T02:58:41;0.50;99.90
11922;DHT22;6021;51.182;3.160;2023-02-28T03:01:07;0.70;99.90
11922;DHT22;6021;51.182;3.160;2023-02-28T03:03:37;0.80;99.90
11922;DHT22;6021;51.182;3.160;2023-02-28T03:06:05;0.90;99.90
11922;DHT22;6021;51.182;3.160;2023-02-28T03:08:36;0.90;99.90
11922;DHT22;6021;51.182;3.160;2023-02-28T03:11:09;0.90;99.90
11922;DHT22;6021;51.182;3.160;2023-02-28T03:16:35;1.00;99.90
11922;DHT22;6021;51.182;3.160;2023-02-28T03:27:19;1.10;99.90
11922;DHT22;6021;51.182;3.160;2023-02-28T03:29:54;1.30;99.90
11922;DHT22;6021;51.182;3.160;2023-02-28T03:32:29;1.30;99.90
11922;DHT22;6021;51.182;3.160;2023-02-28T03:35:16;1.30;99.90
11922;DHT22;6021;51.182;3.160;2023-02-28T03:37:47;1.30;99.90
11922;DHT22;6021;51.182;3.160;2023-02-28T03:40:19;1.30;99.90
11922;DHT22;6021;51.182;3.160;2023-02-28T03:42:49;1.50;99.90
11922;DHT22;6021;51.182;3.160;2023-02-28T03:45:21;1.50;99.90
11922;DHT22;6021;51.182;3.160;2023-02-28T03:50:40;1.70;99.90
11922;DHT22;6021;51.182;3.160;2023-02-28T03:53:12;1.90;99.90
11922;DHT22;6021;51.182;3.160;2023-02-28T03:55:47;1.70;99.90
11922;DHT22;6021;51.182;3.160;2023-02-28T04:01:07;1.70;99.90
11922;DHT22;6021;51.182;3.160;2023-02-28T04:03:31;1.80;99.90
11922;DHT22;6021;51.182;3.160;2023-02-28T04:05:59;1.70;99.90
11922;DHT22;6021;51.182;3.160;2023-02-28T04:08:28;1.90;99.90
11922;DHT22;6021;51.182;3.160;2023-02-28T04:11:01;2.20;99.90
11922;DHT22;6021;51.182;3.160;2023-02-28T04:13:30;2.00;99.90
11922;DHT22;6021;51.182;3.160;2023-02-28T04:15:58;1.90;99.90
11922;DHT22;6021;51.182;3.160;2023-02-28T04:18:27;2.40;99.90
11922;DHT22;6021;51.182;3.160;2023-02-28T04:20:59;2.40;99.90
11922;DHT22;6021;51.182;3.160;2023-02-28T04:23:25;2.20;99.90
11922;DHT22;6021;51.182;3.160;2023-02-28T04:25:55;2.20;99.90
11922;DHT22;6021;51.182;3.160;2023-02-28T04:28:24;2.10;99.90
11922;DHT22;6021;51.182;3.160;2023-02-28T04:30:57;2.30;99.90
11922;DHT22;6021;51.182;3.160;2023-02-28T04:33:25;2.40;99.90
11922;DHT22;6021;51.182;3.160;2023-02-28T04:36:05;2.60;99.90
11922;DHT22;6021;51.182;3.160;2023-02-28T04:38:36;2.60;99.90
11922;DHT22;6021;51.182;3.160;2023-02-28T04:41:04;2.60;99.90
11922;DHT22;6021;51.182;3.160;2023-02-28T04:43:33;2.40;99.90
11922;DHT22;6021;51.182;3.160;2023-02-28T04:46:03;2.40;99.90
11922;DHT22;6021;51.182;3.160;2023-02-28T04:48:34;2.40;99.90
11922;DHT22;6021;51.182;3.160;2023-02-28T04:51:05;2.60;99.90
11922;DHT22;6021;51.182;3.160;2023-02-28T04:53:35;2.60;99.90
11922;DHT22;6021;51.182;3.160;2023-02-28T04:56:04;2.90;99.90
11922;DHT22;6021;51.182;3.160;2023-02-28T04:58:33;2.90;99.90
11922;DHT22;6021;51.182;3.160;2023-02-28T05:03:34;2.60;99.90
11922;DHT22;6021;51.182;3.160;2023-02-28T05:06:03;2.60;99.90
11922;DHT22;6021;51.182;3.160;2023-02-28T05:08:31;2.80;99.90
11922;DHT22;6021;51.182;3.160;2023-02-28T05:11:00;2.60;99.90
11922;DHT22;6021;51.182;3.160;2023-02-28T05:13:29;2.70;99.90
11922;DHT22;6021;51.182;3.160;2023-02-28T05:15:57;2.80;99.90
11922;DHT22;6021;51.182;3.160;2023-02-28T05:18:26;2.60;99.90
11922;DHT22;6021;51.182;3.160;2023-02-28T05:20:54;2.70;99.90
11922;DHT22;6021;51.182;3.160;2023-02-28T05:23:23;3.00;99.90
11922;DHT22;6021;51.182;3.160;2023-02-28T05:25:51;3.10;99.90
11922;DHT22;6021;51.182;3.160;2023-02-28T05:28:20;3.00;99.90
11922;DHT22;6021;51.182;3.160;2023-02-28T05:30:48;2.90;99.90
11922;DHT22;6021;51.182;3.160;2023-02-28T05:33:17;2.80;99.90
11922;DHT22;6021;51.182;3.160;2023-02-28T05:35:45;2.60;99.90
11922;DHT22;6021;51.182;3.160;2023-02-28T05:38:13;2.80;99.90
11922;DHT22;6021;51.182;3.160;2023-02-28T05:40:42;2.60;99.90
11922;DHT22;6021;51.182;3.160;2023-02-28T05:43:11;2.80;99.90
11922;DHT22;6021;51.182;3.160;2023-02-28T05:45:39;2.80;99.90
11922;DHT22;6021;51.182;3.160;2023-02-28T05:48:08;2.70;99.90
11922;DHT22;6021;51.182;3.160;2023-02-28T05:50:36;2.80;99.90
11922;DHT22;6021;51.182;3.160;2023-02-28T05:53:04;2.60;99.90
11922;DHT22;6021;51.182;3.160;2023-02-28T05:55:33;2.60;99.90
11922;DHT22;6021;51.182;3.160;2023-02-28T05:58:03;2.60;99.90
11922;DHT22;6021;51.182;3.160;2023-02-28T06:00:31;2.80;99.90
11922;DHT22;6021;51.182;3.160;2023-02-28T06:03:00;2.80;99.90
11922;DHT22;6021;51.182;3.160;2023-02-28T06:05:29;2.80;99.90
11922;DHT22;6021;51.182;3.160;2023-02-28T06:07:57;2.80;99.90
11922;DHT22;6021;51.182;3.160;2023-02-28T06:10:25;2.80;99.90
11922;DHT22;6021;51.182;3.160;2023-02-28T06:12:54;2.80;99.90
11922;DHT22;6021;51.182;3.160;2023-02-28T06:15:22;2.80;99.90
11922;DHT22;6021;51.182;3.160;2023-02-28T06:17:51;2.80;99.90
11922;DHT22;6021;51.182;3.160;2023-02-28T06:20:19;2.60;99.90
11922;DHT22;6021;51.182;3.160;2023-02-28T06:22:47;2.80;99.90
11922;DHT22;6021;51.182;3.160;2023-02-28T06:25:17;3.10;99.90
11922;DHT22;6021;51.182;3.160;2023-02-28T06:27:46;2.90;99.90
11922;DHT22;6021;51.182;3.160;2023-02-28T06:30:15;2.90;99.90
11922;DHT22;6021;51.182;3.160;2023-02-28T06:32:43;3.20;99.90
11922;DHT22;6021;51.182;3.160;2023-02-28T06:35:12;3.20;99.90
11922;DHT22;6021;51.182;3.160;2023-02-28T06:37:41;3.20;99.90
11922;DHT22;6021;51.182;3.160;2023-02-28T06:40:11;3.20;99.90
11922;DHT22;6021;51.182;3.160;2023-02-28T06:42:40;2.90;99.90
11922;DHT22;6021;51.182;3.160;2023-02-28T06:45:09;3.20;97.00
11922;DHT22;6021;51.182;3.160;2023-02-28T06:47:40;3.00;91.20
11922;DHT22;6021;51.182;3.160;2023-02-28T06:50:11;3.20;82.50
11922;DHT22;6021;51.182;3.160;2023-02-28T06:52:40;3.30;72.70
11922;DHT22;6021;51.182;3.160;2023-02-28T06:55:09;3.30;32.60
11922;DHT22;6021;51.182;3.160;2023-02-28T06:57:37;3.00;13.20
11922;DHT22;6021;51.182;3.160;2023-02-28T07:00:07;3.00;25.60
11922;DHT22;6021;51.182;3.160;2023-02-28T07:02:37;3.30;39.60
11922;DHT22;6021;51.182;3.160;2023-02-28T07:05:06;3.10;45.00
11922;DHT22;6021;51.182;3.160;2023-02-28T07:07:35;3.20;47.70
11922;DHT22;6021;51.182;3.160;2023-02-28T07:10:05;2.80;49.80
11922;DHT22;6021;51.182;3.160;2023-02-28T07:12:33;3.10;49.00
11922;DHT22;6021;51.182;3.160;2023-02-28T07:15:02;2.90;48.90
11922;DHT22;6021;51.182;3.160;2023-02-28T07:17:30;2.80;59.40
11922;DHT22;6021;51.182;3.160;2023-02-28T07:19:59;2.80;60.60
11922;DHT22;6021;51.182;3.160;2023-02-28T07:22:27;3.00;56.10
11922;DHT22;6021;51.182;3.160;2023-02-28T07:24:56;3.10;37.70
11922;DHT22;6021;51.182;3.160;2023-02-28T07:27:25;3.20;43.60
11922;DHT22;6021;51.182;3.160;2023-02-28T07:29:55;3.10;48.40
11922;DHT22;6021;51.182;3.160;2023-02-28T07:32:23;3.10;57.10
11922;DHT22;6021;51.182;3.160;2023-02-28T07:34:52;3.00;69.30
11922;DHT22;6021;51.182;3.160;2023-02-28T07:37:20;3.40;76.80
11922;DHT22;6021;51.182;3.160;2023-02-28T07:39:49;3.10;64.70
11922;DHT22;6021;51.182;3.160;2023-02-28T07:42:18;3.20;74.50
11922;DHT22;6021;51.182;3.160;2023-02-28T07:44:47;3.20;73.10
11922;DHT22;6021;51.182;3.160;2023-02-28T07:47:15;3.40;74.20
11922;DHT22;6021;51.182;3.160;2023-02-28T07:49:44;3.00;88.40
11922;DHT22;6021;51.182;3.160;2023-02-28T07:52:13;3.00;92.40
11922;DHT22;6021;51.182;3.160;2023-02-28T07:54:41;3.00;91.70
11922;DHT22;6021;51.182;3.160;2023-02-28T07:57:09;3.00;88.80
11922;DHT22;6021;51.182;3.160;2023-02-28T07:59:38;3.30;94.80
11922;DHT22;6021;51.182;3.160;2023-02-28T08:02:06;3.20;97.80
11922;DHT22;6021;51.182;3.160;2023-02-28T08:04:36;3.00;99.90
11922;DHT22;6021;51.182;3.160;2023-02-28T08:07:05;3.20;99.90
11922;DHT22;6021;51.182;3.160;2023-02-28T08:09:34;3.30;99.90
11922;DHT22;6021;51.182;3.160;2023-02-28T08:12:02;3.20;99.90
11922;DHT22;6021;51.182;3.160;2023-02-28T08:14:31;3.10;99.90
11922;DHT22;6021;51.182;3.160;2023-02-28T08:16:59;3.30;99.90
11922;DHT22;6021;51.182;3.160;2023-02-28T08:19:28;3.30;99.90
11922;DHT22;6021;51.182;3.160;2023-02-28T08:21:56;3.20;99.90
11922;DHT22;6021;51.182;3.160;2023-02-28T08:24:25;3.00;99.90
11922;DHT22;6021;51.182;3.160;2023-02-28T08:26:53;3.00;99.90
11922;DHT22;6021;51.182;3.160;2023-02-28T08:29:22;2.90;99.90
11922;DHT22;6021;51.182;3.160;2023-02-28T08:31:51;3.10;99.90
11922;DHT22;6021;51.182;3.160;2023-02-28T08:34:19;3.30;99.90
11922;DHT22;6021;51.182;3.160;2023-02-28T08:36:48;3.00;99.90
11922;DHT22;6021;51.182;3.160;2023-02-28T08:39:16;3.20;99.90
11922;DHT22;6021;51.182;3.160;2023-02-28T08:41:46;2.90;99.90
11922;DHT22;6021;51.182;3.160;2023-02-28T08:44:15;2.80;99.90
11922;DHT22;6021;51.182;3.160;2023-02-28T08:46:43;2.80;99.90
11922;DHT22;6021;51.182;3.160;2023-02-28T08:49:12;2.90;99.90
11922;DHT22;6021;51.182;3.160;2023-02-28T08:51:40;2.60;99.90
11922;DHT22;6021;51.182;3.160;2023-02-28T08:54:09;2.50;99.90
11922;DHT22;6021;51.182;3.160;2023-02-28T08:56:39;2.40;99.90
11922;DHT22;6021;51.182;3.160;2023-02-28T08:59:09;2.40;99.90
11922;DHT22;6021;51.182;3.160;2023-02-28T09:01:41;2.60;99.90
11922;DHT22;6021;51.182;3.160;2023-02-28T09:04:10;2.40;99.90
11922;DHT22;6021;51.182;3.160;2023-02-28T09:06:39;2.40;99.90
11922;DHT22;6021;51.182;3.160;2023-02-28T09:09:07;2.60;99.90
11922;DHT22;6021;51.182;3.160;2023-02-28T09:11:37;2.50;99.90
11922;DHT22;6021;51.182;3.160;2023-02-28T09:14:05;2.50;99.90
11922;DHT22;6021;51.182;3.160;2023-02-28T09:16:34;2.60;99.90
11922;DHT22;6021;51.182;3.160;2023-02-28T09:19:02;2.30;99.90
11922;DHT22;6021;51.182;3.160;2023-02-28T09:21:31;2.40;99.90
11922;DHT22;6021;51.182;3.160;2023-02-28T09:23:59;2.10;99.90
11922;DHT22;6021;51.182;3.160;2023-02-28T09:26:28;2.10;99.90
11922;DHT22;6021;51.182;3.160;2023-02-28T09:28:57;2.10;99.90
11922;DHT22;6021;51.182;3.160;2023-02-28T09:31:28;2.30;99.90
11922;DHT22;6021;51.182;3.160;2023-02-28T09:33:57;1.90;99.90
11922;DHT22;6021;51.182;3.160;2023-02-28T09:36:28;1.90;99.90
11922;DHT22;6021;51.182;3.160;2023-02-28T09:38:57;1.90;99.90
11922;DHT22;6021;51.182;3.160;2023-02-28T09:41:26;2.00;99.90
11922;DHT22;6021;51.182;3.160;2023-02-28T09:44:02;2.10;99.90
11922;DHT22;6021;51.182;3.160;2023-02-28T09:46:39;1.70;99.90
11922;DHT22;6021;51.182;3.160;2023-02-28T09:49:13;1.80;99.90
11922;DHT22;6021;51.182;3.160;2023-02-28T09:51:51;1.60;99.90
11922;DHT22;6021;51.182;3.160;2023-02-28T09:54:23;1.70;99.90
11922;DHT22;6021;51.182;3.160;2023-02-28T09:56:57;1.70;99.90
11922;DHT22;6021;51.182;3.160;2023-02-28T09:59:56;1.90;99.90
11922;DHT22;6021;51.182;3.160;2023-02-28T10:05:16;2.10;99.90
11922;DHT22;6021;51.182;3.160;2023-02-28T10:10:39;2.10;99.90
11922;DHT22;6021;51.182;3.160;2023-02-28T10:15:58;2.20;99.90
11922;DHT22;6021;51.182;3.160;2023-02-28T10:18:30;2.30;99.90
11922;DHT22;6021;51.182;3.160;2023-02-28T10:20:58;2.20;99.90
11922;DHT22;6021;51.182;3.160;2023-02-28T10:23:34;2.50;99.90
11922;DHT22;6021;51.182;3.160;2023-02-28T10:26:13;2.10;99.90
11922;DHT22;6021;51.182;3.160;2023-02-28T10:28:43;2.10;99.90
11922;DHT22;6021;51.182;3.160;2023-02-28T10:31:17;2.60;99.90
11922;DHT22;6021;51.182;3.160;2023-02-28T10:33:46;2.50;99.90
11922;DHT22;6021;51.182;3.160;2023-02-28T10:36:20;2.30;99.90
11922;DHT22;6021;51.182;3.160;2023-02-28T10:38:49;2.10;99.90
11922;DHT22;6021;51.182;3.160;2023-02-28T10:41:29;2.20;99.90
11922;DHT22;6021;51.182;3.160;2023-02-28T10:44:22;2.40;99.90
11922;DHT22;6021;51.182;3.160;2023-02-28T10:46:51;2.40;99.90
11922;DHT22;6021;51.182;3.160;2023-02-28T10:49:23;1.90;99.90
11922;DHT22;6021;51.182;3.160;2023-02-28T10:52:13;1.90;99.90
11922;DHT22;6021;51.182;3.160;2023-02-28T10:54:41;2.10;99.90
11922;DHT22;6021;51.182;3.160;2023-02-28T10:57:22;2.10;99.90
11922;DHT22;6021;51.182;3.160;2023-02-28T10:59:53;2.10;99.90
11922;DHT22;6021;51.182;3.160;2023-02-28T11:05:02;2.40;99.90
11922;DHT22;6021;51.182;3.160;2023-02-28T11:07:30;2.30;99.90
11922;DHT22;6021;51.182;3.160;2023-02-28T11:09:59;2.40;99.90
11922;DHT22;6021;51.182;3.160;2023-02-28T11:12:36;2.40;99.90
11922;DHT22;6021;51.182;3.160;2023-02-28T11:15:05;2.50;99.90
11922;DHT22;6021;51.182;3.160;2023-02-28T11:17:33;2.50;99.90
11922;DHT22;6021;51.182;3.160;2023-02-28T11:20:05;2.80;99.90
11922;DHT22;6021;51.182;3.160;2023-02-28T11:22:39;2.60;99.90
11922;DHT22;6021;51.182;3.160;2023-02-28T11:25:16;2.70;99.90
11922;DHT22;6021;51.182;3.160;2023-02-28T11:27:51;3.10;99.90
11922;DHT22;6021;51.182;3.160;2023-02-28T11:30:26;3.00;99.90
11922;DHT22;6021;51.182;3.160;2023-02-28T11:32:55;3.10;99.90
11922;DHT22;6021;51.182;3.160;2023-02-28T11:35:32;3.50;99.90
11922;DHT22;6021;51.182;3.160;2023-02-28T11:38:02;3.50;99.90
11922;DHT22;6021;51.182;3.160;2023-02-28T11:51:31;4.00;99.90
11922;DHT22;6021;51.182;3.160;2023-02-28T11:54:20;4.00;99.90
11922;DHT22;6021;51.182;3.160;2023-02-28T11:56:48;4.00;99.90
11922;DHT22;6021;51.182;3.160;2023-02-28T11:59:39;4.00;99.90
11922;DHT22;6021;51.182;3.160;2023-02-28T12:02:24;3.90;99.90
11922;DHT22;6021;51.182;3.160;2023-02-28T12:10:29;4.30;99.90
11922;DHT22;6021;51.182;3.160;2023-02-28T12:13:15;4.30;99.90
11922;DHT22;6021;51.182;3.160;2023-02-28T12:27:10;4.90;92.60
11922;DHT22;6021;51.182;3.160;2023-02-28T12:32:18;4.90;11.10
11922;DHT22;6021;51.182;3.160;2023-02-28T12:37:56;4.70;1.00
11922;DHT22;6021;51.182;3.160;2023-02-28T12:40:27;4.50;1.00
11922;DHT22;6021;51.182;3.160;2023-02-28T12:43:03;4.60;1.00
11922;DHT22;6021;51.182;3.160;2023-02-28T12:45:37;4.90;1.00
11922;DHT22;6021;51.182;3.160;2023-02-28T12:48:04;4.90;1.00
11922;DHT22;6021;51.182;3.160;2023-02-28T12:50:33;5.00;1.00
11922;DHT22;6021;51.182;3.160;2023-02-28T12:53:15;4.90;1.00
11922;DHT22;6021;51.182;3.160;2023-02-28T12:58:54;4.60;1.00
11922;DHT22;6021;51.182;3.160;2023-02-28T13:09:55;4.60;1.00
11922;DHT22;6021;51.182;3.160;2023-02-28T13:12:24;4.70;1.00
11922;DHT22;6021;51.182;3.160;2023-02-28T13:15:19;4.80;1.00
11922;DHT22;6021;51.182;3.160;2023-02-28T13:17:52;5.00;1.00
11922;DHT22;6021;51.182;3.160;2023-02-28T13:20:33;5.00;1.00
11922;DHT22;6021;51.182;3.160;2023-02-28T13:23:01;5.20;1.00
11922;DHT22;6021;51.182;3.160;2023-02-28T13:28:11;5.40;1.00
11922;DHT22;6021;51.182;3.160;2023-02-28T13:33:37;5.00;1.00
11922;DHT22;6021;51.182;3.160;2023-02-28T13:38:51;5.20;1.00
11922;DHT22;6021;51.182;3.160;2023-02-28T13:41:42;5.10;1.00
11922;DHT22;6021;51.182;3.160;2023-02-28T13:44:19;5.00;1.00
11922;DHT22;6021;51.182;3.160;2023-02-28T13:49:33;4.70;1.00
11922;DHT22;6021;51.182;3.160;2023-02-28T13:52:14;5.00;1.00
11922;DHT22;6021;51.182;3.160;2023-02-28T14:05:40;4.90;1.00
11922;DHT22;6021;51.182;3.160;2023-02-28T14:08:22;4.90;1.00
11922;DHT22;6021;51.182;3.160;2023-02-28T14:11:05;4.80;1.00
11922;DHT22;6021;51.182;3.160;2023-02-28T14:13:42;4.90;1.00
11922;DHT22;6021;51.182;3.160;2023-02-28T14:16:23;4.80;1.00
11922;DHT22;6021;51.182;3.160;2023-02-28T14:22:00;5.10;1.00
11922;DHT22;6021;51.182;3.160;2023-02-28T14:24:49;5.00;1.00
11922;DHT22;6021;51.182;3.160;2023-02-28T14:30:25;4.80;1.00
11922;DHT22;6021;51.182;3.160;2023-02-28T14:37:56;4.70;1.00
11922;DHT22;6021;51.182;3.160;2023-02-28T14:40:46;5.00;1.00
11922;DHT22;6021;51.182;3.160;2023-02-28T14:43:21;4.90;1.00
11922;DHT22;6021;51.182;3.160;2023-02-28T14:45:52;4.90;1.00
11922;DHT22;6021;51.182;3.160;2023-02-28T14:48:22;4.90;1.00
11922;DHT22;6021;51.182;3.160;2023-02-28T14:50:56;4.80;1.00
11922;DHT22;6021;51.182;3.160;2023-02-28T14:53:30;5.10;1.00
11922;DHT22;6021;51.182;3.160;2023-02-28T14:55:59;4.80;1.00
11922;DHT22;6021;51.182;3.160;2023-02-28T14:58:33;5.00;1.00
11922;DHT22;6021;51.182;3.160;2023-02-28T15:01:03;4.80;1.00
11922;DHT22;6021;51.182;3.160;2023-02-28T15:03:37;4.80;1.00
11922;DHT22;6021;51.182;3.160;2023-02-28T15:06:16;4.90;1.00
11922;DHT22;6021;51.182;3.160;2023-02-28T15:08:46;4.80;1.00
11922;DHT22;6021;51.182;3.160;2023-02-28T15:11:19;5.00;1.00
11922;DHT22;6021;51.182;3.160;2023-02-28T15:13:55;4.90;1.00
11922;DHT22;6021;51.182;3.160;2023-02-28T15:19:13;4.80;1.00
11922;DHT22;6021;51.182;3.160;2023-02-28T15:21:47;4.80;1.00
11922;DHT22;6021;51.182;3.160;2023-02-28T15:24:43;4.90;1.00
11922;DHT22;6021;51.182;3.160;2023-02-28T15:26:54;4.90;1.00
11922;DHT22;6021;51.182;3.160;2023-02-28T15:29:25;4.90;1.00
11922;DHT22;6021;51.182;3.160;2023-02-28T15:32:03;5.10;1.00
11922;DHT22;6021;51.182;3.160;2023-02-28T15:34:38;4.70;1.00
11922;DHT22;6021;51.182;3.160;2023-02-28T15:37:27;4.80;1.00
11922;DHT22;6021;51.182;3.160;2023-02-28T15:39:58;4.70;1.00
11922;DHT22;6021;51.182;3.160;2023-02-28T15:42:30;4.90;1.00
11922;DHT22;6021;51.182;3.160;2023-02-28T15:44:58;4.90;1.00
11922;DHT22;6021;51.182;3.160;2023-02-28T15:47:29;4.80;1.00
11922;DHT22;6021;51.182;3.160;2023-02-28T15:50:02;4.90;1.00
11922;DHT22;6021;51.182;3.160;2023-02-28T15:55:18;4.70;1.00
11922;DHT22;6021;51.182;3.160;2023-02-28T15:57:48;4.80;1.00
11922;DHT22;6021;51.182;3.160;2023-02-28T16:00:22;5.00;1.00
11922;DHT22;6021;51.182;3.160;2023-02-28T16:02:51;4.80;1.00
11922;DHT22;6021;51.182;3.160;2023-02-28T16:05:25;4.80;1.00
11922;DHT22;6021;51.182;3.160;2023-02-28T16:08:15;4.80;1.00
11922;DHT22;6021;51.182;3.160;2023-02-28T16:10:43;4.90;1.00
11922;DHT22;6021;51.182;3.160;2023-02-28T16:13:12;4.70;1.00
11922;DHT22;6021;51.182;3.160;2023-02-28T16:15:44;4.70;1.00
11922;DHT22;6021;51.182;3.160;2023-02-28T16:18:12;4.70;1.00
11922;DHT22;6021;51.182;3.160;2023-02-28T16:20:41;4.90;1.00
11922;DHT22;6021;51.182;3.160;2023-02-28T16:23:13;4.90;1.00
11922;DHT22;6021;51.182;3.160;2023-02-28T16:25:42;4.90;1.00
11922;DHT22;6021;51.182;3.160;2023-02-28T16:28:20;4.90;1.00
11922;DHT22;6021;51.182;3.160;2023-02-28T16:30:44;4.70;1.00
11922;DHT22;6021;51.182;3.160;2023-02-28T16:33:13;4.70;1.00
11922;DHT22;6021;51.182;3.160;2023-02-28T16:35:44;4.70;1.00
11922;DHT22;6021;51.182;3.160;2023-02-28T16:38:17;4.50;1.00
11922;DHT22;6021;51.182;3.160;2023-02-28T16:40:45;4.30;1.00
11922;DHT22;6021;51.182;3.160;2023-02-28T16:43:19;4.60;1.00
11922;DHT22;6021;51.182;3.160;2023-02-28T16:45:50;4.70;1.00
11922;DHT22;6021;51.182;3.160;2023-02-28T16:48:18;4.50;1.00
11922;DHT22;6021;51.182;3.160;2023-02-28T16:50:46;4.70;1.00
11922;DHT22;6021;51.182;3.160;2023-02-28T16:53:14;4.70;1.00
11922;DHT22;6021;51.182;3.160;2023-02-28T16:55:43;4.30;1.00
11922;DHT22;6021;51.182;3.160;2023-02-28T16:58:13;4.40;1.00
11922;DHT22;6021;51.182;3.160;2023-02-28T17:00:42;4.50;1.00
11922;DHT22;6021;51.182;3.160;2023-02-28T17:03:25;4.40;1.00
11922;DHT22;6021;51.182;3.160;2023-02-28T17:06:21;4.40;1.00
11922;DHT22;6021;51.182;3.160;2023-02-28T17:08:46;4.20;1.00
11922;DHT22;6021;51.182;3.160;2023-02-28T17:11:15;4.20;1.00
11922;DHT22;6021;51.182;3.160;2023-02-28T17:13:44;4.00;1.00
11922;DHT22;6021;51.182;3.160;2023-02-28T17:19:04;4.00;1.00
11922;DHT22;6021;51.182;3.160;2023-02-28T17:21:28;3.70;1.00
11922;DHT22;6021;51.182;3.160;2023-02-28T17:23:57;3.80;1.00
11922;DHT22;6021;51.182;3.160;2023-02-28T17:26:26;3.60;1.00
11922;DHT22;6021;51.182;3.160;2023-02-28T17:28:56;3.70;1.00
11922;DHT22;6021;51.182;3.160;2023-02-28T17:31:26;3.30;1.00
11922;DHT22;6021;51.182;3.160;2023-02-28T17:33:55;3.50;1.00
11922;DHT22;6021;51.182;3.160;2023-02-28T17:36:25;3.20;1.00
11922;DHT22;6021;51.182;3.160;2023-02-28T17:38:54;3.50;1.00
11922;DHT22;6021;51.182;3.160;2023-02-28T17:41:23;3.50;1.00
11922;DHT22;6021;51.182;3.160;2023-02-28T17:43:53;2.90;1.00
11922;DHT22;6021;51.182;3.160;2023-02-28T17:46:23;3.20;1.00
11922;DHT22;6021;51.182;3.160;2023-02-28T17:48:53;3.10;1.00
11922;DHT22;6021;51.182;3.160;2023-02-28T17:51:23;2.80;1.00
11922;DHT22;6021;51.182;3.160;2023-02-28T17:53:52;2.70;1.00
11922;DHT22;6021;51.182;3.160;2023-02-28T17:56:22;2.70;1.00
11922;DHT22;6021;51.182;3.160;2023-02-28T17:58:54;2.50;1.00
11922;DHT22;6021;51.182;3.160;2023-02-28T18:01:24;2.50;1.00
11922;DHT22;6021;51.182;3.160;2023-02-28T18:03:53;2.50;1.00
11922;DHT22;6021;51.182;3.160;2023-02-28T18:06:34;2.30;1.00
11922;DHT22;6021;51.182;3.160;2023-02-28T18:08:54;2.30;1.00
11922;DHT22;6021;51.182;3.160;2023-02-28T18:11:23;2.30;1.00
11922;DHT22;6021;51.182;3.160;2023-02-28T18:13:54;2.20;1.00
11922;DHT22;6021;51.182;3.160;2023-02-28T18:16:23;2.50;1.00
11922;DHT22;6021;51.182;3.160;2023-02-28T18:18:53;2.20;1.00
11922;DHT22;6021;51.182;3.160;2023-02-28T18:21:21;2.10;1.00
11922;DHT22;6021;51.182;3.160;2023-02-28T18:23:50;2.30;1.00
11922;DHT22;6021;51.182;3.160;2023-02-28T18:26:20;2.20;1.00
11922;DHT22;6021;51.182;3.160;2023-02-28T18:28:48;2.10;1.00
11922;DHT22;6021;51.182;3.160;2023-02-28T18:31:18;2.00;1.00
11922;DHT22;6021;51.182;3.160;2023-02-28T18:33:51;2.10;1.00
11922;DHT22;6021;51.182;3.160;2023-02-28T18:36:20;2.10;1.00
11922;DHT22;6021;51.182;3.160;2023-02-28T18:38:49;2.00;1.00
11922;DHT22;6021;51.182;3.160;2023-02-28T18:41:24;2.30;1.00
11922;DHT22;6021;51.182;3.160;2023-02-28T18:44:40;2.00;1.00